Terminal Aerodrome Forecast
Issued by NWS

Home | Current Version | Previous Version | Text Only | Print | Product List | Glossary On
Versions: 1 2 3 4 5 6 7 8 9 10 11 12 13 14 15 16 17
429
FTUS43 KIND 230520
TAFBMG
TAF
KBMG 230520Z 2306/2406 VRB03KT P6SM SKC
     FM231600 34007KT P6SM FEW040 SCT250
     FM240100 VRB02KT P6SM FEW250
      AMD LTD TO CLD VIS AND WIND TIL 231300=

USA.gov is the U.S. government's official web portal to all federal, state and local government web resources and services.